createdAt,value
2022-09-16T00:00:49.033Z,18.43
2022-09-16T00:03:16.505Z,18.44
2022-09-16T00:05:46.356Z,18.37
2022-09-16T00:08:13.375Z,18.29
2022-09-16T00:10:40.824Z,18.29
2022-09-16T00:13:07.505Z,18.32
2022-09-16T00:15:34.105Z,18.34
2022-09-16T00:18:00.581Z,18.36
2022-09-16T00:20:28.354Z,18.38
2022-09-16T00:22:54.820Z,18.40
2022-09-16T00:25:21.315Z,18.36
2022-09-16T00:27:48.619Z,18.34
2022-09-16T00:30:15.433Z,18.34
2022-09-16T00:32:41.862Z,18.35
2022-09-16T00:35:08.400Z,18.35
2022-09-16T00:37:35.057Z,18.31
2022-09-16T00:40:01.674Z,18.25
2022-09-16T00:42:28.142Z,18.26
2022-09-16T00:44:56.370Z,18.26
2022-09-16T00:47:42.041Z,18.26
2022-09-16T00:50:10.698Z,18.30
2022-09-16T00:52:37.773Z,18.26
2022-09-16T00:55:07.128Z,18.20
2022-09-16T00:57:34.349Z,18.19
2022-09-16T01:00:01.469Z,18.24
2022-09-16T01:02:28.644Z,18.23
2022-09-16T01:05:04.579Z,18.23
2022-09-16T01:07:37.531Z,18.21
2022-09-16T01:10:04.201Z,18.13
2022-09-16T01:12:31.224Z,18.08
2022-09-16T01:14:58.423Z,18.00
2022-09-16T01:17:33.822Z,18.00
2022-09-16T01:20:06.032Z,17.97
2022-09-16T01:22:32.442Z,17.99
2022-09-16T01:25:19.171Z,17.99
2022-09-16T01:27:45.587Z,18.01
2022-09-16T01:30:15.119Z,18.02
2022-09-16T01:32:41.638Z,18.00
2022-09-16T01:35:11.609Z,17.96
2022-09-16T01:37:56.680Z,17.96
2022-09-16T01:40:26.262Z,17.99
2022-09-16T01:43:07.488Z,18.03
2022-09-16T01:45:43.811Z,18.03
2022-09-16T01:48:17.324Z,18.01
2022-09-16T01:50:51.245Z,18.00
2022-09-16T01:53:24.609Z,17.93
2022-09-16T01:55:54.450Z,17.97
2022-09-16T01:58:40.020Z,17.96
2022-09-16T02:01:13.501Z,17.86
2022-09-16T02:03:43.833Z,17.82
2022-09-16T02:06:14.959Z,17.77
2022-09-16T02:08:47.768Z,17.84
2022-09-16T02:11:15.798Z,17.91
2022-09-16T02:13:51.640Z,17.98
2022-09-16T02:16:25.861Z,18.00
2022-09-16T02:18:55.599Z,17.99
2022-09-16T02:21:24.271Z,18.00
2022-09-16T02:23:52.165Z,17.98
2022-09-16T02:26:21.520Z,17.97
2022-09-16T02:28:49.496Z,17.96
2022-09-16T02:31:17.632Z,17.98
2022-09-16T02:33:50.703Z,17.99
2022-09-16T02:36:20.122Z,18.03
2022-09-16T02:38:49.475Z,18.01
2022-09-16T02:41:16.081Z,17.97
2022-09-16T02:43:42.908Z,17.97
2022-09-16T02:46:09.449Z,17.97
2022-09-16T02:49:11.512Z,17.96
2022-09-16T02:51:56.770Z,17.93
2022-09-16T02:54:26.433Z,17.92
2022-09-16T02:56:54.263Z,17.94
2022-09-16T02:59:21.527Z,17.93
2022-09-16T03:01:48.129Z,17.90
2022-09-16T03:04:16.236Z,17.86
2022-09-16T03:06:43.057Z,17.87
2022-09-16T03:09:10.558Z,17.85
2022-09-16T03:11:55.850Z,17.87
2022-09-16T03:14:25.275Z,17.84
2022-09-16T03:16:54.749Z,17.84
2022-09-16T03:19:21.256Z,17.82
2022-09-16T03:22:05.148Z,17.82
2022-09-16T03:24:42.912Z,17.82
2022-09-16T03:27:35.792Z,17.80
2022-09-16T03:30:07.675Z,17.84
2022-09-16T03:32:39.880Z,17.89
2022-09-16T03:35:18.492Z,17.89
2022-09-16T03:37:45.645Z,17.87
2022-09-16T03:40:14.005Z,17.83
2022-09-16T03:42:41.384Z,17.83
2022-09-16T03:45:08.245Z,17.83
2022-09-16T03:47:34.859Z,17.77
2022-09-16T03:50:01.381Z,17.73
2022-09-16T03:52:27.892Z,17.72
2022-09-16T03:54:54.327Z,17.74
2022-09-16T03:57:20.719Z,17.77
2022-09-16T03:59:47.141Z,17.80
2022-09-16T04:02:13.605Z,17.75
2022-09-16T04:04:40.114Z,17.73
2022-09-16T04:07:06.561Z,17.74
2022-09-16T04:09:33.033Z,17.70
2022-09-16T04:11:59.592Z,17.65
2022-09-16T04:14:26.073Z,17.67
2022-09-16T04:16:52.492Z,17.69
2022-09-16T04:19:19.023Z,17.74
2022-09-16T04:21:45.440Z,17.73
2022-09-16T04:24:13.682Z,17.73
2022-09-16T04:26:40.765Z,17.67
2022-09-16T04:29:07.290Z,17.58
2022-09-16T04:31:33.966Z,17.53
2022-09-16T04:34:03.475Z,17.52
2022-09-16T04:36:29.984Z,17.55
2022-09-16T04:38:56.453Z,17.59
2022-09-16T04:41:24.475Z,17.62
2022-09-16T04:43:56.040Z,17.64
2022-09-16T04:46:22.880Z,17.66
2022-09-16T04:48:50.191Z,17.63
2022-09-16T04:51:17.492Z,17.63
2022-09-16T04:53:44.214Z,17.66
2022-09-16T04:56:18.251Z,17.65
2022-09-16T04:58:46.084Z,17.63
2022-09-16T05:01:13.981Z,17.59
2022-09-16T05:03:41.372Z,17.56
2022-09-16T05:06:20.781Z,17.50
2022-09-16T05:08:48.171Z,17.51
2022-09-16T05:11:16.174Z,17.54
2022-09-16T05:13:42.583Z,17.55
2022-09-16T05:16:10.287Z,17.57
2022-09-16T05:18:37.420Z,17.57
2022-09-16T05:21:04.813Z,17.60
2022-09-16T05:23:31.860Z,17.58
2022-09-16T05:26:05.888Z,17.60
2022-09-16T05:28:32.902Z,17.62
2022-09-16T05:31:11.618Z,17.59
2022-09-16T05:33:42.509Z,17.58
2022-09-16T05:36:13.523Z,17.60
2022-09-16T05:38:40.234Z,17.59
2022-09-16T05:41:07.071Z,17.59
2022-09-16T05:43:34.070Z,17.63
2022-09-16T05:46:01.282Z,17.64
2022-09-16T05:48:28.174Z,17.63
2022-09-16T05:50:56.579Z,17.62
2022-09-16T05:53:23.979Z,17.68
2022-09-16T05:55:56.701Z,17.73
2022-09-16T05:58:23.582Z,17.78
2022-09-16T06:00:50.127Z,17.82
2022-09-16T06:03:17.075Z,17.86
2022-09-16T06:05:45.779Z,17.92
2022-09-16T06:08:12.429Z,17.92
2022-09-16T06:10:40.350Z,18.00
2022-09-16T06:13:06.766Z,18.05
2022-09-16T06:15:34.143Z,18.07
2022-09-16T06:18:05.528Z,18.11
2022-09-16T06:20:32.845Z,18.11
2022-09-16T06:22:59.275Z,18.13
2022-09-16T06:25:25.783Z,18.13
2022-09-16T06:27:52.257Z,18.17
2022-09-16T06:30:18.747Z,18.26
2022-09-16T06:32:45.413Z,18.34
2022-09-16T06:35:11.935Z,18.45
2022-09-16T06:37:38.436Z,18.53
2022-09-16T06:40:05.085Z,18.56
2022-09-16T06:42:32.024Z,18.64
2022-09-16T06:45:04.324Z,18.63
2022-09-16T06:47:33.137Z,18.60
2022-09-16T06:50:00.344Z,18.60
2022-09-16T06:52:27.271Z,18.59
2022-09-16T06:54:54.167Z,18.57
2022-09-16T06:57:23.014Z,18.46
2022-09-16T06:59:49.892Z,18.36
2022-09-16T07:02:16.554Z,18.31
2022-09-16T07:04:43.059Z,18.33
2022-09-16T07:07:10.497Z,18.37
2022-09-16T07:09:37.453Z,18.35
2022-09-16T07:12:03.960Z,18.43
2022-09-16T07:14:32.528Z,18.50
2022-09-16T07:17:00.360Z,18.56
2022-09-16T07:19:27.001Z,18.55
2022-09-16T07:21:53.571Z,18.45
2022-09-16T07:24:20.005Z,18.56
2022-09-16T07:26:46.933Z,18.66
2022-09-16T07:29:15.489Z,18.70
2022-09-16T07:31:42.287Z,18.62
2022-09-16T07:34:10.080Z,18.72
2022-09-16T07:36:39.861Z,18.81
2022-09-16T07:39:06.683Z,18.80
2022-09-16T07:41:34.754Z,18.72
2022-09-16T07:44:01.537Z,18.67
2022-09-16T07:46:29.101Z,18.71
2022-09-16T07:48:55.909Z,18.72
2022-09-16T07:51:23.579Z,18.70
2022-09-16T07:53:53.778Z,18.65
2022-09-16T07:56:21.188Z,18.58
2022-09-16T07:58:47.703Z,18.49
2022-09-16T08:01:15.355Z,18.48
2022-09-16T08:03:42.518Z,18.44
2022-09-16T08:06:14.213Z,18.49
2022-09-16T08:08:41.137Z,18.53
2022-09-16T08:11:08.149Z,18.55
2022-09-16T08:13:35.937Z,18.57
2022-09-16T08:16:06.278Z,18.62
2022-09-16T08:18:32.902Z,18.62
2022-09-16T08:21:04.706Z,18.67
2022-09-16T08:23:32.514Z,18.77
2022-09-16T08:25:59.014Z,18.84
2022-09-16T08:28:27.964Z,18.85
2022-09-16T08:31:00.176Z,18.94
2022-09-16T08:33:27.089Z,19.01
2022-09-16T08:36:02.593Z,19.01
2022-09-16T08:38:29.539Z,19.09
2022-09-16T08:41:20.154Z,19.20
2022-09-16T08:44:05.365Z,19.15
2022-09-16T08:46:41.763Z,19.27
2022-09-16T08:49:31.869Z,19.47
2022-09-16T08:52:00.206Z,19.60
2022-09-16T08:54:30.279Z,19.86
2022-09-16T08:56:59.890Z,20.41
2022-09-16T08:59:28.595Z,20.94
2022-09-16T09:02:09.625Z,21.46
2022-09-16T09:04:36.701Z,22.25
2022-09-16T09:07:22.292Z,22.93
2022-09-16T09:10:05.882Z,23.73
2022-09-16T09:13:04.563Z,23.53
2022-09-16T09:15:53.697Z,23.15
2022-09-16T09:18:27.501Z,23.08
2022-09-16T09:21:04.809Z,23.37
2022-09-16T09:23:51.846Z,23.24
2022-09-16T09:26:22.588Z,22.96
2022-09-16T09:29:01.544Z,22.62
2022-09-16T09:31:34.352Z,22.52
2022-09-16T09:34:16.147Z,22.69
2022-09-16T09:37:03.875Z,22.79
2022-09-16T09:39:30.314Z,23.41
2022-09-16T09:42:05.931Z,24.60
2022-09-16T09:44:32.499Z,26.00
2022-09-16T09:47:02.040Z,28.28
2022-09-16T09:49:36.111Z,31.53
2022-09-16T09:52:08.083Z,33.92
2022-09-16T09:54:35.465Z,32.28
2022-09-16T09:57:05.033Z,30.86
2022-09-16T09:59:31.485Z,29.07
2022-09-16T10:01:58.655Z,27.94
2022-09-16T10:04:25.266Z,27.06
2022-09-16T10:06:53.810Z,26.22
2022-09-16T10:09:21.142Z,25.93
2022-09-16T10:11:49.108Z,25.69
2022-09-16T10:14:23.229Z,25.55
2022-09-16T10:16:51.172Z,26.06
2022-09-16T10:19:25.408Z,26.11
2022-09-16T10:22:11.806Z,26.47
2022-09-16T10:24:39.663Z,27.54
2022-09-16T10:27:21.454Z,28.15
2022-09-16T10:29:48.440Z,28.44
2022-09-16T10:32:19.675Z,28.95
2022-09-16T10:34:46.611Z,30.09
2022-09-16T10:37:13.501Z,33.01
2022-09-16T10:39:44.873Z,36.00
2022-09-16T10:42:19.704Z,39.22
2022-09-16T10:44:48.255Z,40.26
2022-09-16T10:47:41.264Z,40.46
2022-09-16T10:50:08.212Z,41.92
2022-09-16T10:52:42.621Z,41.09
2022-09-16T10:55:26.795Z,38.43
2022-09-16T10:57:54.700Z,36.12
2022-09-16T11:00:23.074Z,34.60
2022-09-16T11:02:55.812Z,32.64
2022-09-16T11:05:30.874Z,31.53
2022-09-16T11:08:23.753Z,30.34
2022-09-16T11:10:59.463Z,28.62
2022-09-16T11:13:33.447Z,28.99
2022-09-16T11:16:00.003Z,33.01
2022-09-16T11:18:49.277Z,33.59
2022-09-16T11:21:30.915Z,31.02
2022-09-16T11:24:03.734Z,32.40
2022-09-16T11:26:36.751Z,34.36
2022-09-16T11:29:26.773Z,33.68
2022-09-16T11:31:59.880Z,33.03
2022-09-16T11:34:31.285Z,35.70
2022-09-16T11:37:06.414Z,38.58
2022-09-16T11:39:51.298Z,40.27
2022-09-16T11:42:33.068Z,40.91
2022-09-16T11:45:35.178Z,41.62
2022-09-16T11:48:04.628Z,42.40
2022-09-16T11:50:37.447Z,42.71
2022-09-16T11:53:07.427Z,42.53
2022-09-16T11:55:49.064Z,42.02
2022-09-16T11:58:24.733Z,39.98
2022-09-16T12:00:56.673Z,38.04
2022-09-16T12:03:28.538Z,38.21
2022-09-16T12:06:03.624Z,37.61
2022-09-16T12:08:33.021Z,35.10
2022-09-16T12:11:05.145Z,32.95
2022-09-16T12:13:37.176Z,32.44
2022-09-16T12:16:13.626Z,34.56
2022-09-16T12:18:43.006Z,37.21
2022-09-16T12:21:28.644Z,37.83
2022-09-16T12:24:09.347Z,34.67
2022-09-16T12:26:45.350Z,32.40
2022-09-16T12:29:15.929Z,30.25
2022-09-16T12:31:51.522Z,28.50
2022-09-16T12:34:20.829Z,27.50
2022-09-16T12:36:57.833Z,27.08
2022-09-16T12:39:24.498Z,26.57
2022-09-16T12:42:06.430Z,26.23
2022-09-16T12:44:36.309Z,26.06
2022-09-16T12:47:25.103Z,25.68
2022-09-16T12:50:10.125Z,25.09
2022-09-16T12:52:57.236Z,24.99
2022-09-16T12:55:29.935Z,25.03
2022-09-16T12:58:15.160Z,25.35
2022-09-16T13:01:00.438Z,25.58
2022-09-16T13:03:28.221Z,25.39
2022-09-16T13:05:57.657Z,25.42
2022-09-16T13:08:26.603Z,25.54
2022-09-16T13:12:09.548Z,25.52
2022-09-16T13:13:55.543Z,25.05
2022-09-16T13:16:34.474Z,24.87
2022-09-16T13:19:19.188Z,24.75
2022-09-16T13:21:47.025Z,24.60
2022-09-16T13:24:17.491Z,24.45
2022-09-16T13:26:45.131Z,24.21
2022-09-16T13:29:30.377Z,24.04
2022-09-16T13:34:28.182Z,23.41
2022-09-16T13:36:54.684Z,22.90
2022-09-16T13:39:29.113Z,22.44
2022-09-16T13:41:55.878Z,22.01
2022-09-16T13:44:30.447Z,21.83
2022-09-16T13:47:09.135Z,21.77
2022-09-16T13:49:42.997Z,21.75
2022-09-16T13:52:15.772Z,21.86
2022-09-16T13:55:09.943Z,21.91
2022-09-16T13:57:56.177Z,22.09
2022-09-16T14:00:24.430Z,22.30
2022-09-16T14:02:53.831Z,22.46
2022-09-16T14:05:24.554Z,22.54
2022-09-16T14:07:55.475Z,22.64
2022-09-16T14:10:26.552Z,22.83
2022-09-16T14:13:02.156Z,22.98
2022-09-16T14:15:29.994Z,22.93
2022-09-16T14:17:59.500Z,22.65
2022-09-16T14:20:26.153Z,22.47
2022-09-16T14:23:02.863Z,22.38
2022-09-16T14:25:31.108Z,22.22
2022-09-16T14:28:26.620Z,22.19
2022-09-16T14:30:56.446Z,21.95
2022-09-16T14:33:43.647Z,21.89
2022-09-16T14:36:23.054Z,21.60
2022-09-16T14:39:00.234Z,21.35
2022-09-16T14:41:32.636Z,21.21
2022-09-16T14:44:07.134Z,21.21
2022-09-16T14:46:34.025Z,21.22
2022-09-16T14:49:00.501Z,21.16
2022-09-16T14:51:27.486Z,21.16
2022-09-16T14:54:11.678Z,21.13
2022-09-16T14:56:39.457Z,21.08
2022-09-16T14:59:06.647Z,21.10
2022-09-16T15:01:33.120Z,21.13
2022-09-16T15:04:18.562Z,21.18
2022-09-16T15:07:05.093Z,21.20
2022-09-16T15:09:47.932Z,21.23
2022-09-16T15:12:23.744Z,21.27
2022-09-16T15:14:50.553Z,21.55
2022-09-16T15:17:19.349Z,21.66
2022-09-16T15:19:49.414Z,21.66
2022-09-16T15:22:16.146Z,21.60
2022-09-16T15:24:42.714Z,21.48
2022-09-16T15:27:09.462Z,21.32
2022-09-16T15:29:46.571Z,21.19
2022-09-16T15:32:17.928Z,21.13
2022-09-16T15:34:44.531Z,21.09
2022-09-16T15:37:28.910Z,20.91
2022-09-16T15:39:55.529Z,20.75
2022-09-16T15:42:25.463Z,20.60
2022-09-16T15:44:59.822Z,20.50
2022-09-16T15:47:28.931Z,20.35
2022-09-16T15:50:16.813Z,20.26
2022-09-16T15:53:09.878Z,20.11
2022-09-16T15:55:39.129Z,20.01
2022-09-16T15:58:25.876Z,19.91
2022-09-16T16:00:55.619Z,19.81
2022-09-16T16:03:22.484Z,19.77
2022-09-16T16:05:53.128Z,19.74
2022-09-16T16:08:38.377Z,19.72
2022-09-16T16:11:09.298Z,19.71
2022-09-16T16:13:35.917Z,19.65
2022-09-16T16:16:04.413Z,19.64
2022-09-16T16:21:22.944Z,19.67
2022-09-16T16:23:49.437Z,19.71
2022-09-16T16:26:15.975Z,19.75
2022-09-16T16:28:42.539Z,19.77
2022-09-16T16:31:10.389Z,19.65
2022-09-16T16:33:38.024Z,19.58
2022-09-16T16:36:06.976Z,19.57
2022-09-16T16:38:33.396Z,19.57
2022-09-16T16:40:59.899Z,19.68
2022-09-16T16:43:26.387Z,19.73
2022-09-16T16:45:53.719Z,19.61
2022-09-16T16:48:20.241Z,19.26
2022-09-16T16:50:54.628Z,18.90
2022-09-16T16:53:21.183Z,18.55
2022-09-16T16:55:47.605Z,18.45
2022-09-16T16:58:14.019Z,18.41
2022-09-16T17:00:40.542Z,18.32
2022-09-16T17:03:07.045Z,18.30
2022-09-16T17:05:33.544Z,18.33
2022-09-16T17:08:00.466Z,18.35
2022-09-16T17:10:26.902Z,18.36
2022-09-16T17:12:53.467Z,18.22
2022-09-16T17:15:19.910Z,18.13
2022-09-16T17:17:46.396Z,18.18
2022-09-16T17:20:12.881Z,18.20
2022-09-16T17:22:39.776Z,18.21
2022-09-16T17:25:06.279Z,18.26
2022-09-16T17:27:32.684Z,18.20
2022-09-16T17:30:01.050Z,18.01
2022-09-16T17:32:27.702Z,17.81
2022-09-16T17:34:54.188Z,17.71
2022-09-16T17:37:20.711Z,17.71
2022-09-16T17:39:48.623Z,17.66
2022-09-16T17:42:15.038Z,17.63
2022-09-16T17:44:42.909Z,17.61
2022-09-16T17:47:10.310Z,17.56
2022-09-16T17:49:36.736Z,17.49
2022-09-16T17:52:03.323Z,17.43
2022-09-16T17:54:29.841Z,17.44
2022-09-16T17:56:56.338Z,17.35
2022-09-16T17:59:22.846Z,17.35
2022-09-16T18:01:49.407Z,17.39
2022-09-16T18:04:15.949Z,17.48
2022-09-16T18:06:43.495Z,17.47
2022-09-16T18:09:10.106Z,17.44
2022-09-16T18:11:37.744Z,17.48
2022-09-16T18:14:05.519Z,17.54
2022-09-16T18:16:32.849Z,17.60
2022-09-16T18:19:00.582Z,17.57
2022-09-16T18:21:27.815Z,17.59
2022-09-16T18:23:56.327Z,17.57
2022-09-16T18:26:25.621Z,17.55
2022-09-16T18:31:40.949Z,17.53
2022-09-16T18:34:07.798Z,17.55
2022-09-16T18:36:36.927Z,17.61
2022-09-16T18:39:04.176Z,17.62
2022-09-16T18:41:33.467Z,17.55
2022-09-16T18:44:01.210Z,17.51
2022-09-16T18:46:29.033Z,17.45
2022-09-16T18:48:56.061Z,17.34
2022-09-16T18:51:24.852Z,17.25
2022-09-16T18:53:52.915Z,17.25
2022-09-16T18:56:21.728Z,17.19
2022-09-16T18:59:09.929Z,17.17
2022-09-16T19:01:37.738Z,17.18
2022-09-16T19:04:05.783Z,17.15
2022-09-16T19:06:36.697Z,17.11
2022-09-16T19:09:05.480Z,17.00
2022-09-16T19:11:32.978Z,16.95
2022-09-16T19:13:59.650Z,16.80
2022-09-16T19:16:27.338Z,16.67
2022-09-16T19:18:55.566Z,16.64
2022-09-16T19:21:23.463Z,16.62
2022-09-16T19:23:58.636Z,16.58
2022-09-16T19:26:26.053Z,16.57
2022-09-16T19:28:52.684Z,16.61
2022-09-16T19:31:19.371Z,16.66
2022-09-16T19:33:46.415Z,16.55
2022-09-16T19:36:13.966Z,16.54
2022-09-16T19:38:40.896Z,16.53
2022-09-16T19:41:07.920Z,16.57
2022-09-16T19:43:34.432Z,16.55
2022-09-16T19:49:09.680Z,16.57
2022-09-16T19:51:36.179Z,16.62
2022-09-16T19:54:03.264Z,16.58
2022-09-16T19:56:31.618Z,16.47
2022-09-16T19:58:58.232Z,16.43
2022-09-16T20:01:26.271Z,16.40
2022-09-16T20:03:53.145Z,16.29
2022-09-16T20:06:21.084Z,16.20
2022-09-16T20:08:48.432Z,16.06
2022-09-16T20:11:19.040Z,16.14
2022-09-16T20:13:49.557Z,16.17
2022-09-16T20:16:16.552Z,16.11
2022-09-16T20:18:43.278Z,16.05
2022-09-16T20:21:11.013Z,16.00
2022-09-16T20:23:38.151Z,15.95
2022-09-16T20:26:06.323Z,15.90
2022-09-16T20:28:33.752Z,15.86
2022-09-16T20:31:00.814Z,15.73
2022-09-16T20:33:32.595Z,15.65
2022-09-16T20:36:10.580Z,15.68
2022-09-16T20:38:38.484Z,15.67
2022-09-16T20:41:09.260Z,15.70
2022-09-16T20:43:36.145Z,15.73
2022-09-16T20:46:08.089Z,15.72
2022-09-16T20:48:35.342Z,15.76
2022-09-16T20:51:06.792Z,15.81
2022-09-16T20:53:38.661Z,15.86
2022-09-16T20:56:06.859Z,15.84
2022-09-16T20:58:36.770Z,15.69
2022-09-16T21:01:04.426Z,15.63
2022-09-16T21:03:30.936Z,15.58
2022-09-16T21:06:20.207Z,15.51
2022-09-16T21:08:46.952Z,15.50
2022-09-16T21:11:19.689Z,15.53
2022-09-16T21:13:47.485Z,15.53
2022-09-16T21:16:15.696Z,15.53
2022-09-16T21:18:42.971Z,15.48
2022-09-16T21:21:14.118Z,15.45
2022-09-16T21:23:41.151Z,15.39
2022-09-16T21:26:12.483Z,15.33
2022-09-16T21:28:39.227Z,15.33
2022-09-16T21:31:07.340Z,15.31
2022-09-16T21:33:37.796Z,15.26
2022-09-16T21:36:05.208Z,15.23
2022-09-16T21:38:32.293Z,15.23
2022-09-16T21:41:05.916Z,15.19
2022-09-16T21:43:34.637Z,15.17
2022-09-16T21:46:02.701Z,15.20
2022-09-16T21:48:32.096Z,15.23
2022-09-16T21:51:03.096Z,15.26
2022-09-16T21:53:33.562Z,15.28
2022-09-16T21:56:04.288Z,15.30
2022-09-16T21:58:31.136Z,15.30
2022-09-16T22:01:18.077Z,15.28
2022-09-16T22:03:45.889Z,15.24
2022-09-16T22:06:13.635Z,15.17
2022-09-16T22:08:46.811Z,15.14
2022-09-16T22:11:16.092Z,14.98
2022-09-16T22:13:42.667Z,14.89
2022-09-16T22:16:13.105Z,14.89
2022-09-16T22:18:39.792Z,14.78
2022-09-16T22:21:08.823Z,14.75
2022-09-16T22:23:37.242Z,14.74
2022-09-16T22:26:05.189Z,14.77
2022-09-16T22:28:33.027Z,14.73
2022-09-16T22:31:06.876Z,14.70
2022-09-16T22:33:34.037Z,14.66
2022-09-16T22:36:08.011Z,14.66
2022-09-16T22:38:34.506Z,14.63
2022-09-16T22:41:01.609Z,14.65
2022-09-16T22:43:28.318Z,14.64
2022-09-16T22:46:01.775Z,14.57
2022-09-16T22:48:28.927Z,14.54
2022-09-16T22:50:58.957Z,14.49
2022-09-16T22:53:26.556Z,14.53
2022-09-16T22:56:00.512Z,14.57
2022-09-16T22:58:27.536Z,14.55
2022-09-16T23:01:01.854Z,14.59
2022-09-16T23:03:28.383Z,14.55
2022-09-16T23:05:55.950Z,14.51
2022-09-16T23:08:23.492Z,14.39
2022-09-16T23:10:50.314Z,14.35
2022-09-16T23:13:16.871Z,14.23
2022-09-16T23:15:43.526Z,14.16
2022-09-16T23:18:09.953Z,14.08
2022-09-16T23:20:36.445Z,14.08
2022-09-16T23:23:03.770Z,14.18
2022-09-16T23:25:30.228Z,14.25
2022-09-16T23:27:56.727Z,14.23
2022-09-16T23:30:23.341Z,14.23
2022-09-16T23:32:49.817Z,14.21
2022-09-16T23:35:17.280Z,14.20
2022-09-16T23:37:43.828Z,14.18
2022-09-16T23:40:10.554Z,14.14
2022-09-16T23:42:37.173Z,14.09
2022-09-16T23:45:04.287Z,14.08
2022-09-16T23:47:30.774Z,14.19
2022-09-16T23:49:57.691Z,14.28
2022-09-16T23:52:24.170Z,14.28
2022-09-16T23:54:51.131Z,14.26
2022-09-16T23:57:17.537Z,14.30
2022-09-16T23:59:43.954Z,14.39
